Time;durP1;ratioP1;P1;durP2;ratioP2;P2;SDS_P1;SDS_P2;PMS_P1;PMS_P2;Temp;Humidity;BMP_temperature;BMP_pressure;BME280_temperature;BME280_humidity;BME280_pressure;Samples;Min_cycle;Max_cycle;Signal;HPM_P1;HPM_P2
2024/01/17 00:00:18;;;;;;;13.80;8.55;;;;;;;;;;5081820;28;20217;-81
2024/01/17 00:02:45;;;;;;;11.05;7.82;;;;;;;;;;5087486;28;20197;-81
2024/01/17 00:05:13;;;;;;;14.45;9.45;;;;;;;;;;5086372;28;20248;-81
2024/01/17 00:07:40;;;;;;;12.02;8.48;;;;;;;;;;5083586;28;20288;-82
2024/01/17 00:10:10;;;;;;;17.33;8.73;;;;;;;;;;5094270;28;20197;-82
2024/01/17 00:12:37;;;;;;;8.98;6.22;;;;;;;;;;5085519;28;20201;-81
2024/01/17 00:15:07;;;;;;;9.52;6.80;;;;;;;;;;5080321;28;20288;-80
2024/01/17 00:17:34;;;;;;;9.63;6.63;;;;;;;;;;5087626;28;20304;-82
2024/01/17 00:20:02;;;;;;;7.63;6.40;;;;;;;;;;5084939;28;20299;-79
2024/01/17 00:22:29;;;;;;;6.57;5.90;;;;;;;;;;5098179;28;20696;-79
2024/01/17 00:24:57;;;;;;;11.40;6.50;;;;;;;;;;5084183;28;20312;-80
2024/01/17 00:27:26;;;;;;;11.23;8.20;;;;;;;;;;5091000;28;20287;-81
2024/01/17 00:29:57;;;;;;;12.23;9.27;;;;;;;;;;5093520;28;20295;-80
2024/01/17 00:32:26;;;;;;;8.45;5.85;;;;;;;;;;5098797;28;20666;-79
2024/01/17 00:34:53;;;;;;;9.63;5.60;;;;;;;;;;5093406;28;20287;-82
2024/01/17 00:37:21;;;;;;;10.82;6.13;;;;;;;;;;5094771;28;20292;-81
2024/01/17 00:39:48;;;;;;;10.82;7.00;;;;;;;;;;5091332;28;20287;-79
2024/01/17 00:42:16;;;;;;;9.60;6.45;;;;;;;;;;5092438;28;20658;-79
2024/01/17 00:44:44;;;;;;;10.10;5.82;;;;;;;;;;5092762;28;20232;-81
2024/01/17 00:47:12;;;;;;;9.50;5.97;;;;;;;;;;5097972;28;20744;-81
2024/01/17 00:49:41;;;;;;;5.75;5.10;;;;;;;;;;5078294;28;20286;-81
2024/01/17 00:52:09;;;;;;;10.75;5.97;;;;;;;;;;5087104;28;20284;-80
2024/01/17 00:54:37;;;;;;;8.38;5.43;;;;;;;;;;5091325;28;20319;-81
2024/01/17 00:57:05;;;;;;;7.70;6.10;;;;;;;;;;5084996;28;20304;-80
2024/01/17 00:59:32;;;;;;;7.13;5.55;;;;;;;;;;5091899;28;20249;-81
2024/01/17 01:02:01;;;;;;;6.45;5.85;;;;;;;;;;5096113;28;20303;-81
2024/01/17 01:04:29;;;;;;;7.03;5.47;;;;;;;;;;5096430;28;20220;-81
2024/01/17 01:06:58;;;;;;;8.80;5.80;;;;;;;;;;5092050;28;20287;-81
2024/01/17 01:09:25;;;;;;;8.27;7.38;;;;;;;;;;5090977;28;20223;-81
2024/01/17 01:11:53;;;;;;;10.02;8.05;;;;;;;;;;5095721;28;20197;-78
2024/01/17 01:14:20;;;;;;;6.50;5.20;;;;;;;;;;5097633;28;20586;-80
2024/01/17 01:16:48;;;;;;;12.52;7.82;;;;;;;;;;5097636;28;20284;-79
2024/01/17 01:19:15;;;;;;;12.93;8.13;;;;;;;;;;5097536;28;20271;-79
2024/01/17 01:21:43;;;;;;;14.55;7.95;;;;;;;;;;5097169;28;20307;-79
2024/01/17 01:24:12;;;;;;;9.50;7.38;;;;;;;;;;5097998;28;20232;-79
2024/01/17 01:26:39;;;;;;;12.30;7.72;;;;;;;;;;5097142;28;20208;-80
2024/01/17 01:29:07;;;;;;;10.50;7.20;;;;;;;;;;5096702;28;20295;-79
2024/01/17 01:31:35;;;;;;;10.82;7.15;;;;;;;;;;5097194;28;20223;-78
2024/01/17 01:34:02;;;;;;;11.57;7.07;;;;;;;;;;5097026;28;20667;-79
2024/01/17 01:36:30;;;;;;;11.30;6.93;;;;;;;;;;5097196;28;20206;-80
2024/01/17 01:38:57;;;;;;;5.55;4.97;;;;;;;;;;5097418;28;20204;-79
2024/01/17 01:41:26;;;;;;;11.18;8.00;;;;;;;;;;5096548;28;20228;-80
2024/01/17 01:43:54;;;;;;;10.43;7.57;;;;;;;;;;5096902;28;20216;-79
2024/01/17 01:46:26;;;;;;;14.65;8.43;;;;;;;;;;5096817;28;20653;-79
2024/01/17 01:48:54;;;;;;;12.35;8.30;;;;;;;;;;5097408;28;20203;-80
2024/01/17 01:51:22;;;;;;;9.95;8.38;;;;;;;;;;5096953;28;20192;-80
2024/01/17 01:53:53;;;;;;;8.93;7.25;;;;;;;;;;5096998;28;20231;-80
2024/01/17 01:56:26;;;;;;;12.88;7.55;;;;;;;;;;5096997;28;20673;-79
2024/01/17 01:58:55;;;;;;;9.77;7.25;;;;;;;;;;5096972;28;20181;-80
2024/01/17 02:01:22;;;;;;;10.85;7.88;;;;;;;;;;5096987;28;20674;-78
2024/01/17 02:03:50;;;;;;;21.95;8.20;;;;;;;;;;5097107;28;20206;-80
2024/01/17 02:06:19;;;;;;;12.27;7.80;;;;;;;;;;5096473;28;20200;-80
2024/01/17 02:08:47;;;;;;;12.32;7.88;;;;;;;;;;5096675;28;20210;-80
2024/01/17 02:11:14;;;;;;;14.85;9.52;;;;;;;;;;5096209;28;20566;-80
2024/01/17 02:13:45;;;;;;;13.98;8.52;;;;;;;;;;5096740;28;20295;-79
2024/01/17 02:16:13;;;;;;;7.10;5.60;;;;;;;;;;5096872;28;20570;-79
2024/01/17 02:18:40;;;;;;;9.90;7.00;;;;;;;;;;5096563;28;20218;-80
2024/01/17 02:21:08;;;;;;;8.95;6.78;;;;;;;;;;5096207;28;20571;-80
2024/01/17 02:23:36;;;;;;;11.50;7.57;;;;;;;;;;5096108;28;20226;-79
2024/01/17 02:26:05;;;;;;;8.90;6.00;;;;;;;;;;5096474;28;20217;-79
2024/01/17 02:28:33;;;;;;;7.97;5.75;;;;;;;;;;5096352;28;20222;-79
2024/01/17 02:31:01;;;;;;;14.25;8.20;;;;;;;;;;5096811;28;20677;-77
2024/01/17 02:33:28;;;;;;;7.65;5.95;;;;;;;;;;5096489;28;20192;-77
2024/01/17 02:35:56;;;;;;;10.43;7.22;;;;;;;;;;5095747;28;20311;-80
2024/01/17 02:38:23;;;;;;;8.43;6.97;;;;;;;;;;5096398;28;20580;-79
2024/01/17 02:40:51;;;;;;;10.60;7.03;;;;;;;;;;5095565;28;20616;-80
2024/01/17 02:43:19;;;;;;;9.95;8.02;;;;;;;;;;5095630;28;20224;-79
2024/01/17 02:45:47;;;;;;;12.20;8.30;;;;;;;;;;5096099;28;20770;-79
2024/01/17 02:48:14;;;;;;;14.02;9.50;;;;;;;;;;5095941;28;20647;-80
2024/01/17 02:50:42;;;;;;;15.25;8.10;;;;;;;;;;5096284;28;20210;-78
2024/01/17 02:53:09;;;;;;;14.18;9.32;;;;;;;;;;5095513;28;20219;-78
2024/01/17 02:55:37;;;;;;;10.48;6.97;;;;;;;;;;5096205;28;20219;-80
2024/01/17 02:58:05;;;;;;;13.68;8.40;;;;;;;;;;5095626;28;20212;-79
2024/01/17 03:00:34;;;;;;;11.00;7.53;;;;;;;;;;5095518;28;20259;-80
2024/01/17 03:03:02;;;;;;;10.63;8.00;;;;;;;;;;5095417;28;20314;-79
2024/01/17 03:05:29;;;;;;;11.40;7.97;;;;;;;;;;5095316;28;20311;-79
2024/01/17 03:07:56;;;;;;;11.18;8.68;;;;;;;;;;5095694;28;20196;-79
2024/01/17 03:10:24;;;;;;;12.98;8.32;;;;;;;;;;5096537;28;20200;-79
2024/01/17 03:12:52;;;;;;;11.35;7.15;;;;;;;;;;5095996;28;20291;-78
2024/01/17 03:15:19;;;;;;;9.82;6.97;;;;;;;;;;5095758;28;20220;-80
2024/01/17 03:17:48;;;;;;;16.38;9.13;;;;;;;;;;5096243;28;20699;-80
2024/01/17 03:20:16;;;;;;;14.55;7.38;;;;;;;;;;5095950;28;20693;-80
2024/01/17 03:22:44;;;;;;;14.95;7.88;;;;;;;;;;5095382;28;20708;-79
2024/01/17 03:25:12;;;;;;;10.23;5.68;;;;;;;;;;5095923;28;20635;-80
2024/01/17 03:27:38;;;;;;;8.23;5.85;;;;;;;;;;5095995;28;20681;-80
2024/01/17 03:30:08;;;;;;;10.60;7.47;;;;;;;;;;5095226;28;20200;-79
2024/01/17 03:32:35;;;;;;;9.32;6.78;;;;;;;;;;5095465;28;20199;-80
2024/01/17 03:35:04;;;;;;;7.43;6.40;;;;;;;;;;5095402;28;20220;-78
2024/01/17 03:37:32;;;;;;;12.50;7.93;;;;;;;;;;5095675;28;20238;-78
2024/01/17 03:39:59;;;;;;;6.13;5.53;;;;;;;;;;5095004;28;20208;-79
2024/01/17 03:42:27;;;;;;;7.18;5.68;;;;;;;;;;5095246;28;20227;-77
2024/01/17 03:44:54;;;;;;;12.98;5.93;;;;;;;;;;5094899;28;20224;-79
2024/01/17 03:47:22;;;;;;;6.70;5.72;;;;;;;;;;5094932;28;20224;-79
2024/01/17 03:49:49;;;;;;;7.13;5.68;;;;;;;;;;5095322;28;20200;-79
2024/01/17 03:52:19;;;;;;;10.80;6.57;;;;;;;;;;5096324;28;20204;-78
2024/01/17 03:54:47;;;;;;;10.13;6.70;;;;;;;;;;5099895;28;20220;-80
2024/01/17 03:57:15;;;;;;;10.75;6.47;;;;;;;;;;5099462;28;20293;-79
2024/01/17 03:59:43;;;;;;;10.93;7.00;;;;;;;;;;5099725;28;20200;-79
2024/01/17 04:02:11;;;;;;;11.38;6.70;;;;;;;;;;5099540;28;20208;-79
2024/01/17 04:04:41;;;;;;;8.38;6.68;;;;;;;;;;5099114;28;20230;-79
2024/01/17 04:07:09;;;;;;;9.73;6.22;;;;;;;;;;5099308;28;20192;-79
2024/01/17 04:09:38;;;;;;;7.45;6.47;;;;;;;;;;5099840;28;20208;-79
2024/01/17 04:12:06;;;;;;;11.57;7.28;;;;;;;;;;5098875;28;20206;-80
2024/01/17 04:14:34;;;;;;;11.48;8.18;;;;;;;;;;5099486;28;20713;-79
2024/01/17 04:17:01;;;;;;;12.25;7.50;;;;;;;;;;5099171;28;20243;-80
2024/01/17 04:19:29;;;;;;;11.20;7.63;;;;;;;;;;5098243;28;20722;-79
2024/01/17 04:21:57;;;;;;;9.68;7.80;;;;;;;;;;5098879;28;20295;-79
2024/01/17 04:24:25;;;;;;;12.38;7.88;;;;;;;;;;5098386;28;20228;-79
2024/01/17 04:26:56;;;;;;;11.75;8.63;;;;;;;;;;5098802;28;20211;-80
2024/01/17 04:29:23;;;;;;;13.32;7.53;;;;;;;;;;5099679;28;20209;-79
2024/01/17 04:31:52;;;;;;;14.40;9.80;;;;;;;;;;5098590;28;20208;-79
2024/01/17 04:34:19;;;;;;;10.35;7.03;;;;;;;;;;5099074;28;20247;-80
2024/01/17 04:36:47;;;;;;;14.13;7.63;;;;;;;;;;5098016;28;20238;-78
2024/01/17 04:39:15;;;;;;;10.50;8.48;;;;;;;;;;5098478;28;20200;-79
2024/01/17 04:41:43;;;;;;;15.98;9.10;;;;;;;;;;5099338;28;20207;-79
2024/01/17 04:44:12;;;;;;;9.98;7.55;;;;;;;;;;5098324;28;20581;-79
2024/01/17 04:46:39;;;;;;;8.35;6.68;;;;;;;;;;5098593;28;20267;-78
2024/01/17 04:49:07;;;;;;;9.93;6.68;;;;;;;;;;5098706;28;20206;-80
2024/01/17 04:51:35;;;;;;;12.77;6.95;;;;;;;;;;5098548;28;20203;-80
2024/01/17 04:54:03;;;;;;;9.73;7.03;;;;;;;;;;5098751;28;20209;-80
2024/01/17 04:56:30;;;;;;;8.55;6.15;;;;;;;;;;5098741;28;20193;-79
2024/01/17 04:58:57;;;;;;;10.57;7.32;;;;;;;;;;5098353;28;20196;-77
2024/01/17 05:01:26;;;;;;;8.43;6.55;;;;;;;;;;5098004;28;20283;-79
2024/01/17 05:03:54;;;;;;;12.18;6.32;;;;;;;;;;5097679;28;20311;-80
2024/01/17 05:06:21;;;;;;;6.70;6.00;;;;;;;;;;5097961;28;20812;-79
2024/01/17 05:08:49;;;;;;;9.15;6.22;;;;;;;;;;5098715;28;20207;-79
2024/01/17 05:11:22;;;;;;;6.70;5.50;;;;;;;;;;5098363;28;20354;-79
2024/01/17 05:13:49;;;;;;;12.00;7.53;;;;;;;;;;5098316;28;20184;-79
2024/01/17 05:16:17;;;;;;;9.50;6.65;;;;;;;;;;5097905;28;20248;-79
2024/01/17 05:18:46;;;;;;;10.32;7.07;;;;;;;;;;5097944;28;20215;-79
2024/01/17 05:21:13;;;;;;;10.80;7.18;;;;;;;;;;5098289;28;20607;-80
2024/01/17 05:23:41;;;;;;;8.90;6.30;;;;;;;;;;5097560;28;20572;-79
2024/01/17 05:26:08;;;;;;;12.70;7.03;;;;;;;;;;5098024;28;20311;-79
2024/01/17 05:28:36;;;;;;;7.53;6.35;;;;;;;;;;5097695;28;20200;-80
2024/01/17 05:31:04;;;;;;;8.93;6.55;;;;;;;;;;5098014;28;20207;-79
2024/01/17 05:33:31;;;;;;;8.80;6.82;;;;;;;;;;5097886;28;20196;-79
2024/01/17 05:36:00;;;;;;;9.50;6.03;;;;;;;;;;5097638;28;20230;-80
2024/01/17 05:38:28;;;;;;;7.70;5.97;;;;;;;;;;5097972;28;20224;-79
2024/01/17 05:40:55;;;;;;;12.10;6.60;;;;;;;;;;5097733;28;20204;-80
2024/01/17 05:43:23;;;;;;;10.00;6.30;;;;;;;;;;5097461;28;20578;-79
2024/01/17 05:45:50;;;;;;;10.38;7.47;;;;;;;;;;5098762;28;20224;-79
2024/01/17 05:48:18;;;;;;;9.13;6.45;;;;;;;;;;5097529;28;20204;-80
2024/01/17 05:50:46;;;;;;;7.35;6.00;;;;;;;;;;5097550;28;20567;-79
2024/01/17 05:53:15;;;;;;;12.25;6.13;;;;;;;;;;5097931;28;20203;-79
2024/01/17 05:55:42;;;;;;;9.20;5.95;;;;;;;;;;5097755;28;20242;-78
2024/01/17 05:58:10;;;;;;;8.60;5.70;;;;;;;;;;5097621;28;20206;-80
2024/01/17 06:00:40;;;;;;;9.43;5.68;;;;;;;;;;5097557;28;20644;-80
2024/01/17 06:03:07;;;;;;;7.40;6.57;;;;;;;;;;5097534;28;20207;-78
2024/01/17 06:05:35;;;;;;;11.10;5.97;;;;;;;;;;5096560;28;20228;-79
2024/01/17 06:08:03;;;;;;;10.63;5.93;;;;;;;;;;5097999;28;20700;-79
2024/01/17 06:10:32;;;;;;;9.18;6.25;;;;;;;;;;5097107;28;20268;-80
2024/01/17 06:13:00;;;;;;;8.93;6.32;;;;;;;;;;5097291;28;20243;-79
2024/01/17 06:15:27;;;;;;;8.43;5.75;;;;;;;;;;5090018;28;20300;-79
2024/01/17 06:17:55;;;;;;;11.35;5.93;;;;;;;;;;5085475;28;20283;-79
2024/01/17 06:20:22;;;;;;;6.72;5.32;;;;;;;;;;5083115;28;20300;-80
2024/01/17 06:22:50;;;;;;;7.95;6.32;;;;;;;;;;5086987;28;20295;-79
2024/01/17 06:25:17;;;;;;;10.02;5.95;;;;;;;;;;5078770;28;20220;-80
2024/01/17 06:27:46;;;;;;;11.25;6.95;;;;;;;;;;5071475;28;20212;-80
2024/01/17 06:30:14;;;;;;;10.18;6.13;;;;;;;;;;5083253;28;20641;-78
2024/01/17 06:32:42;;;;;;;8.38;5.50;;;;;;;;;;5073170;28;20427;-80
2024/01/17 06:35:11;;;;;;;9.55;6.15;;;;;;;;;;5085616;28;20221;-78
2024/01/17 06:37:38;;;;;;;7.00;5.60;;;;;;;;;;5084999;28;20247;-80
2024/01/17 06:40:10;;;;;;;9.32;5.35;;;;;;;;;;5082802;28;20208;-80
2024/01/17 06:42:38;;;;;;;8.18;5.53;;;;;;;;;;5091942;28;20204;-80
2024/01/17 06:45:10;;;;;;;7.95;5.90;;;;;;;;;;5085576;28;20236;-80
2024/01/17 06:47:37;;;;;;;7.10;4.50;;;;;;;;;;5089894;28;20200;-79
2024/01/17 06:50:06;;;;;;;9.23;5.47;;;;;;;;;;5083459;28;20295;-80
2024/01/17 06:52:33;;;;;;;6.70;4.47;;;;;;;;;;5095924;28;20295;-79
2024/01/17 06:55:01;;;;;;;8.23;5.28;;;;;;;;;;5086269;28;20288;-81
2024/01/17 06:57:28;;;;;;;6.95;4.65;;;;;;;;;;5082752;28;20618;-82
2024/01/17 06:59:56;;;;;;;7.82;4.57;;;;;;;;;;5093203;28;20203;-80
2024/01/17 07:02:25;;;;;;;8.75;4.40;;;;;;;;;;5087309;28;20232;-80
2024/01/17 07:04:52;;;;;;;7.53;5.10;;;;;;;;;;5078823;28;20317;-80
2024/01/17 07:07:20;;;;;;;6.88;4.90;;;;;;;;;;5079225;28;20359;-81
2024/01/17 07:09:48;;;;;;;8.50;4.93;;;;;;;;;;5078583;28;20270;-77
2024/01/17 07:12:15;;;;;;;9.27;4.35;;;;;;;;;;5095040;28;20679;-80
2024/01/17 07:14:43;;;;;;;8.20;4.82;;;;;;;;;;5079354;28;20699;-80
2024/01/17 07:17:10;;;;;;;10.55;5.43;;;;;;;;;;5086824;28;20214;-80
2024/01/17 07:19:39;;;;;;;6.28;4.38;;;;;;;;;;5099340;28;20208;-80
2024/01/17 07:22:09;;;;;;;4.60;4.00;;;;;;;;;;5081748;28;20673;-80
2024/01/17 07:24:36;;;;;;;7.40;4.80;;;;;;;;;;5079144;28;20227;-80
2024/01/17 07:27:04;;;;;;;8.40;4.53;;;;;;;;;;5091694;28;20208;-78
2024/01/17 07:29:32;;;;;;;5.47;3.90;;;;;;;;;;5094505;28;20216;-79
2024/01/17 07:31:59;;;;;;;4.32;3.90;;;;;;;;;;5082668;28;20214;-80
2024/01/17 07:34:26;;;;;;;4.63;4.22;;;;;;;;;;5096996;28;20228;-80
2024/01/17 07:36:55;;;;;;;5.45;4.45;;;;;;;;;;5097193;28;20296;-79
2024/01/17 07:39:23;;;;;;;5.93;4.10;;;;;;;;;;5096863;28;20218;-79
2024/01/17 07:41:50;;;;;;;5.82;4.38;;;;;;;;;;5094250;28;20616;-80
2024/01/17 07:44:17;;;;;;;5.68;4.57;;;;;;;;;;5076869;28;20259;-80
2024/01/17 07:46:47;;;;;;;8.32;4.90;;;;;;;;;;5076729;28;20225;-80
2024/01/17 07:49:14;;;;;;;6.03;4.80;;;;;;;;;;5082921;28;20204;-79
2024/01/17 07:51:42;;;;;;;7.82;5.95;;;;;;;;;;5089178;28;20239;-78
2024/01/17 07:54:11;;;;;;;8.68;5.13;;;;;;;;;;5082851;28;20211;-80
2024/01/17 07:56:41;;;;;;;10.25;6.00;;;;;;;;;;5077111;28;20250;-80
2024/01/17 07:59:08;;;;;;;8.38;5.75;;;;;;;;;;5089934;28;20228;-80
2024/01/17 08:01:36;;;;;;;10.45;7.18;;;;;;;;;;5087790;28;20205;-80
2024/01/17 08:04:05;;;;;;;9.65;5.40;;;;;;;;;;5088744;28;20209;-80
2024/01/17 08:06:32;;;;;;;8.68;6.43;;;;;;;;;;5080504;28;20225;-80
2024/01/17 08:09:00;;;;;;;7.05;5.28;;;;;;;;;;5093123;28;20208;-81
2024/01/17 08:11:28;;;;;;;8.23;5.97;;;;;;;;;;5086541;28;20205;-82
2024/01/17 08:13:56;;;;;;;9.32;6.18;;;;;;;;;;5081034;28;20193;-81
2024/01/17 08:16:23;;;;;;;7.07;5.68;;;;;;;;;;5077697;28;20194;-80
2024/01/17 08:18:51;;;;;;;7.22;5.10;;;;;;;;;;5080407;28;20212;-79
2024/01/17 08:21:18;;;;;;;7.57;5.63;;;;;;;;;;5077897;28;20304;-78
2024/01/17 08:23:45;;;;;;;11.07;6.40;;;;;;;;;;5074919;28;20197;-80
2024/01/17 08:26:13;;;;;;;10.02;5.57;;;;;;;;;;5075238;28;20251;-80
2024/01/17 08:28:43;;;;;;;7.78;5.43;;;;;;;;;;5076317;28;20227;-79
2024/01/17 08:31:10;;;;;;;8.55;5.70;;;;;;;;;;5095659;28;20239;-80
2024/01/17 08:33:38;;;;;;;9.30;7.15;;;;;;;;;;5083542;28;20205;-79
2024/01/17 08:36:08;;;;;;;8.40;5.28;;;;;;;;;;5074869;28;20619;-79
2024/01/17 08:38:35;;;;;;;8.35;6.22;;;;;;;;;;5081457;28;20666;-78
2024/01/17 08:41:03;;;;;;;8.55;6.20;;;;;;;;;;5089014;28;20269;-79
2024/01/17 08:43:31;;;;;;;6.38;5.15;;;;;;;;;;5089197;28;20205;-78
2024/01/17 08:46:00;;;;;;;9.45;6.68;;;;;;;;;;5083002;28;20267;-78
2024/01/17 08:48:28;;;;;;;9.98;5.80;;;;;;;;;;5081906;28;20583;-78
2024/01/17 08:50:56;;;;;;;9.25;6.72;;;;;;;;;;5093710;28;20641;-77
2024/01/17 08:53:24;;;;;;;8.35;6.65;;;;;;;;;;5092376;28;20209;-80
2024/01/17 08:55:53;;;;;;;13.00;6.63;;;;;;;;;;5088962;28;20220;-80
2024/01/17 08:58:20;;;;;;;10.98;6.50;;;;;;;;;;5089851;28;20196;-79
2024/01/17 09:00:48;;;;;;;9.60;5.95;;;;;;;;;;5093114;28;20636;-80
2024/01/17 09:03:18;;;;;;;8.57;6.25;;;;;;;;;;5101067;28;20650;-80
2024/01/17 09:05:46;;;;;;;9.18;6.43;;;;;;;;;;5091959;28;20250;-80
2024/01/17 09:08:14;;;;;;;9.23;6.00;;;;;;;;;;5102318;28;20207;-80
2024/01/17 09:10:42;;;;;;;7.68;6.82;;;;;;;;;;5080804;28;20207;-81
2024/01/17 09:13:13;;;;;;;7.65;6.78;;;;;;;;;;5095445;28;20229;-81
2024/01/17 09:15:41;;;;;;;7.88;6.35;;;;;;;;;;5099900;28;20220;-80
2024/01/17 09:18:08;;;;;;;9.73;6.72;;;;;;;;;;5088969;28;20197;-81
2024/01/17 09:20:37;;;;;;;8.43;6.28;;;;;;;;;;5092139;28;20200;-80
2024/01/17 09:23:05;;;;;;;8.30;7.47;;;;;;;;;;5100182;28;20241;-80
2024/01/17 09:25:33;;;;;;;8.98;6.68;;;;;;;;;;5098274;28;20298;-80
2024/01/17 09:28:00;;;;;;;9.68;6.95;;;;;;;;;;5101040;28;20697;-83
2024/01/17 09:30:28;;;;;;;11.10;6.95;;;;;;;;;;5090991;28;20235;-81
2024/01/17 09:32:56;;;;;;;9.13;7.50;;;;;;;;;;5086543;28;20207;-79
2024/01/17 09:35:23;;;;;;;9.32;7.07;;;;;;;;;;5098444;28;20289;-79
2024/01/17 09:37:52;;;;;;;8.27;6.85;;;;;;;;;;5079172;28;20280;-80
2024/01/17 09:40:21;;;;;;;9.80;7.25;;;;;;;;;;5079830;28;20251;-79
2024/01/17 09:42:49;;;;;;;10.63;6.18;;;;;;;;;;5095666;28;20272;-80
2024/01/17 09:45:18;;;;;;;10.80;6.88;;;;;;;;;;5080929;28;20260;-80
2024/01/17 09:47:46;;;;;;;10.88;7.15;;;;;;;;;;5079548;28;20225;-80
2024/01/17 09:50:14;;;;;;;9.68;6.70;;;;;;;;;;5079254;28;20236;-80
2024/01/17 09:52:42;;;;;;;13.18;6.72;;;;;;;;;;5059584;28;20586;-79
2024/01/17 09:55:11;;;;;;;8.68;6.18;;;;;;;;;;5078597;28;20224;-80
2024/01/17 09:57:52;;;;;;;9.27;6.50;;;;;;;;;;5086819;28;20201;-80
2024/01/17 10:00:20;;;;;;;8.10;6.43;;;;;;;;;;5080291;28;20196;-78
2024/01/17 10:02:49;;;;;;;7.15;5.40;;;;;;;;;;5091466;28;20211;-78
2024/01/17 10:05:17;;;;;;;12.68;7.68;;;;;;;;;;5081141;28;20244;-80
2024/01/17 10:07:45;;;;;;;8.80;7.38;;;;;;;;;;5067192;28;20577;-79
2024/01/17 10:10:14;;;;;;;8.95;6.70;;;;;;;;;;5075101;28;20208;-80
2024/01/17 10:12:42;;;;;;;10.52;7.03;;;;;;;;;;5090123;28;20204;-80
2024/01/17 10:15:14;;;;;;;19.38;7.95;;;;;;;;;;5078803;28;20585;-80
2024/01/17 10:17:41;;;;;;;9.20;6.72;;;;;;;;;;5096274;28;20630;-80
2024/01/17 10:20:11;;;;;;;7.85;6.22;;;;;;;;;;5099243;28;20224;-81
2024/01/17 10:22:39;;;;;;;11.07;6.97;;;;;;;;;;5092359;28;20208;-79
2024/01/17 10:25:08;;;;;;;7.78;5.97;;;;;;;;;;5099825;28;20274;-80
2024/01/17 10:27:37;;;;;;;11.35;7.60;;;;;;;;;;5098375;28;20570;-80
2024/01/17 10:30:07;;;;;;;12.82;6.72;;;;;;;;;;5098341;28;20215;-80
2024/01/17 10:32:34;;;;;;;12.57;7.55;;;;;;;;;;5098186;28;20233;-80
2024/01/17 10:35:06;;;;;;;9.23;6.97;;;;;;;;;;5093883;28;20764;-80
2024/01/17 10:37:34;;;;;;;9.90;7.57;;;;;;;;;;5097694;28;20404;-80
2024/01/17 10:40:11;;;;;;;10.18;7.75;;;;;;;;;;5099646;28;20718;-79
2024/01/17 10:42:40;;;;;;;8.82;7.15;;;;;;;;;;5099856;28;20677;-79
2024/01/17 10:45:09;;;;;;;16.58;7.72;;;;;;;;;;5100730;28;20227;-79
2024/01/17 10:47:37;;;;;;;16.40;8.63;;;;;;;;;;5098429;28;20220;-78
2024/01/17 10:50:06;;;;;;;10.63;7.78;;;;;;;;;;5099220;28;20211;-79
2024/01/17 10:52:37;;;;;;;9.52;7.60;;;;;;;;;;5099172;28;20209;-77
2024/01/17 10:55:07;;;;;;;9.68;7.18;;;;;;;;;;5098949;28;20224;-78
2024/01/17 10:57:35;;;;;;;12.70;8.27;;;;;;;;;;5099708;28;20394;-79
2024/01/17 11:00:06;;;;;;;11.45;8.10;;;;;;;;;;5099818;28;20204;-79
2024/01/17 11:02:34;;;;;;;12.32;6.95;;;;;;;;;;5092325;28;20225;-79
2024/01/17 11:05:06;;;;;;;9.25;8.23;;;;;;;;;;5099363;28;20315;-79
2024/01/17 11:07:35;;;;;;;16.63;8.70;;;;;;;;;;5100011;28;20220;-79
2024/01/17 11:10:05;;;;;;;9.82;7.80;;;;;;;;;;5099634;28;20207;-82
2024/01/17 11:12:34;;;;;;;10.82;7.57;;;;;;;;;;5097448;28;20196;-82
2024/01/17 11:15:04;;;;;;;10.68;7.55;;;;;;;;;;5094608;28;20234;-82
2024/01/17 11:17:35;;;;;;;9.75;7.60;;;;;;;;;;5088359;28;20200;-79
2024/01/17 11:20:08;;;;;;;12.20;7.93;;;;;;;;;;5100054;28;20223;-81
2024/01/17 11:22:37;;;;;;;11.52;8.02;;;;;;;;;;5097262;28;20200;-82
2024/01/17 11:25:16;;;;;;;9.50;6.90;;;;;;;;;;5094778;28;20480;-81
2024/01/17 11:27:51;;;;;;;8.52;6.97;;;;;;;;;;5099861;28;20281;-80
2024/01/17 11:30:34;;;;;;;10.23;7.78;;;;;;;;;;5099476;28;20196;-81
2024/01/17 11:33:07;;;;;;;12.27;9.07;;;;;;;;;;5100490;28;20698;-82
2024/01/17 11:35:45;;;;;;;13.63;8.27;;;;;;;;;;5099541;28;20390;-81
2024/01/17 11:38:14;;;;;;;16.63;8.77;;;;;;;;;;5100245;28;20192;-82
2024/01/17 11:40:43;;;;;;;8.10;7.00;;;;;;;;;;5097196;28;20235;-81
2024/01/17 11:43:10;;;;;;;8.57;7.25;;;;;;;;;;5094809;28;20251;-81
2024/01/17 11:45:39;;;;;;;11.57;8.18;;;;;;;;;;5099431;28;20259;-82
2024/01/17 11:48:17;;;;;;;8.45;6.90;;;;;;;;;;5092880;28;20651;-82
2024/01/17 11:50:53;;;;;;;10.45;7.95;;;;;;;;;;5098300;28;20199;-82
2024/01/17 11:53:24;;;;;;;8.02;6.85;;;;;;;;;;5097807;28;20199;-81
2024/01/17 11:55:52;;;;;;;7.55;6.47;;;;;;;;;;5101524;28;20261;-81
2024/01/17 11:58:21;;;;;;;8.98;5.88;;;;;;;;;;5100730;28;20260;-81
2024/01/17 12:00:53;;;;;;;8.75;6.72;;;;;;;;;;5082745;28;20207;-81
2024/01/17 12:03:31;;;;;;;8.18;7.07;;;;;;;;;;5099899;28;20269;-80
2024/01/17 12:05:58;;;;;;;8.23;7.38;;;;;;;;;;5084272;28;20247;-81
2024/01/17 12:08:26;;;;;;;9.55;6.88;;;;;;;;;;5092418;28;20231;-81
2024/01/17 12:10:55;;;;;;;8.20;7.25;;;;;;;;;;5090559;28;20659;-80
2024/01/17 12:13:23;;;;;;;8.70;7.07;;;;;;;;;;5098249;28;20200;-80
2024/01/17 12:15:55;;;;;;;10.60;7.47;;;;;;;;;;5093729;28;20223;-80
2024/01/17 12:18:23;;;;;;;9.43;7.05;;;;;;;;;;5090790;28;20196;-81
2024/01/17 12:20:52;;;;;;;10.93;8.02;;;;;;;;;;5088022;28;20202;-80
2024/01/17 12:23:20;;;;;;;10.02;7.70;;;;;;;;;;5099326;28;20200;-81
2024/01/17 12:25:48;;;;;;;8.90;7.00;;;;;;;;;;5100164;28;20235;-79
2024/01/17 12:28:20;;;;;;;9.18;7.63;;;;;;;;;;5101216;28;20228;-81
2024/01/17 12:31:03;;;;;;;8.73;7.15;;;;;;;;;;5094633;28;20208;-81
2024/01/17 12:33:32;;;;;;;11.02;7.72;;;;;;;;;;5100837;28;20232;-79
2024/01/17 12:36:01;;;;;;;8.63;7.68;;;;;;;;;;5089744;28;20614;-79
2024/01/17 12:38:29;;;;;;;8.48;5.72;;;;;;;;;;5093898;28;20663;-81
2024/01/17 12:40:57;;;;;;;10.90;8.10;;;;;;;;;;5103292;28;20651;-81
2024/01/17 12:43:25;;;;;;;9.13;7.40;;;;;;;;;;5080170;28;20204;-81
2024/01/17 12:45:53;;;;;;;11.25;8.90;;;;;;;;;;5097342;28;20247;-80
2024/01/17 12:48:22;;;;;;;10.02;7.63;;;;;;;;;;5078803;28;20233;-81
2024/01/17 12:50:51;;;;;;;8.10;7.25;;;;;;;;;;5082454;28;20239;-80
2024/01/17 12:53:19;;;;;;;10.30;7.63;;;;;;;;;;5093872;28;20284;-81
2024/01/17 12:55:47;;;;;;;12.70;7.88;;;;;;;;;;5087600;28;20223;-81
2024/01/17 12:58:16;;;;;;;9.95;8.18;;;;;;;;;;5081134;28;20201;-81
2024/01/17 13:00:43;;;;;;;9.52;6.53;;;;;;;;;;5098295;28;20291;-80
2024/01/17 13:03:12;;;;;;;12.05;7.10;;;;;;;;;;5088391;28;20216;-80
2024/01/17 13:05:42;;;;;;;10.75;6.95;;;;;;;;;;5078508;28;20225;-81
2024/01/17 13:08:11;;;;;;;8.02;7.22;;;;;;;;;;5084946;28;20216;-81
2024/01/17 13:10:40;;;;;;;13.82;8.77;;;;;;;;;;5098050;28;20640;-83
2024/01/17 13:13:09;;;;;;;11.40;8.85;;;;;;;;;;5092154;28;20705;-82
2024/01/17 13:15:38;;;;;;;9.38;7.75;;;;;;;;;;5101654;28;20224;-82
2024/01/17 13:18:08;;;;;;;9.82;7.80;;;;;;;;;;5103277;28;20211;-86
2024/01/17 13:20:38;;;;;;;12.13;8.07;;;;;;;;;;5099363;28;20686;-83
2024/01/17 13:23:07;;;;;;;9.50;7.85;;;;;;;;;;5091496;28;20209;-80
2024/01/17 13:25:36;;;;;;;11.98;8.43;;;;;;;;;;5099044;28;20227;-81
2024/01/17 13:28:05;;;;;;;11.45;8.65;;;;;;;;;;5096941;28;20288;-81
2024/01/17 13:30:36;;;;;;;9.45;7.30;;;;;;;;;;5093815;28;20200;-80
2024/01/17 13:33:06;;;;;;;11.20;8.13;;;;;;;;;;5101946;28;20724;-81
2024/01/17 13:35:34;;;;;;;8.63;7.72;;;;;;;;;;5094777;28;20236;-80
2024/01/17 13:38:02;;;;;;;10.45;8.80;;;;;;;;;;5098014;28;20201;-80
2024/01/17 13:40:32;;;;;;;11.07;8.57;;;;;;;;;;5092122;28;20200;-80
2024/01/17 13:43:00;;;;;;;9.27;7.15;;;;;;;;;;5085608;28;20573;-82
2024/01/17 13:45:31;;;;;;;9.27;7.78;;;;;;;;;;5087495;28;20244;-81
2024/01/17 13:47:58;;;;;;;10.85;8.73;;;;;;;;;;5088533;28;20624;-82
2024/01/17 13:50:27;;;;;;;10.07;7.75;;;;;;;;;;5091548;28;20288;-80
2024/01/17 13:52:58;;;;;;;9.18;7.30;;;;;;;;;;5097352;28;20192;-81
2024/01/17 13:55:27;;;;;;;8.00;6.72;;;;;;;;;;5093934;28;20227;-82
2024/01/17 13:57:56;;;;;;;8.00;6.43;;;;;;;;;;5097760;28;20280;-81
2024/01/17 14:00:23;;;;;;;7.10;6.25;;;;;;;;;;5099118;28;20287;-80
2024/01/17 14:02:52;;;;;;;8.70;7.35;;;;;;;;;;5102319;28;20282;-82
2024/01/17 14:05:20;;;;;;;7.57;6.22;;;;;;;;;;5102382;28;20270;-81
2024/01/17 14:07:48;;;;;;;11.32;7.07;;;;;;;;;;5095899;28;20292;-80
2024/01/17 14:10:15;;;;;;;6.70;5.85;;;;;;;;;;5094925;28;20217;-82
2024/01/17 14:12:44;;;;;;;8.57;7.05;;;;;;;;;;5093414;28;20240;-82
2024/01/17 14:15:16;;;;;;;10.57;7.55;;;;;;;;;;5095024;28;20247;-80
2024/01/17 14:17:43;;;;;;;7.45;6.55;;;;;;;;;;5102576;28;20205;-82
2024/01/17 14:20:16;;;;;;;8.02;7.18;;;;;;;;;;5089153;28;20277;-81
2024/01/17 14:22:44;;;;;;;10.05;7.18;;;;;;;;;;5086947;28;20227;-80
2024/01/17 14:25:14;;;;;;;8.98;7.78;;;;;;;;;;5103984;28;20307;-81
2024/01/17 14:27:42;;;;;;;9.38;6.68;;;;;;;;;;5097752;28;20208;-81
2024/01/17 14:30:12;;;;;;;7.13;6.43;;;;;;;;;;5101558;28;20307;-82
2024/01/17 14:32:40;;;;;;;5.90;5.07;;;;;;;;;;5098072;28;20204;-80
2024/01/17 14:35:09;;;;;;;9.60;7.60;;;;;;;;;;5096886;28;20303;-81
2024/01/17 14:37:39;;;;;;;11.43;7.93;;;;;;;;;;5089054;28;20201;-79
2024/01/17 14:40:09;;;;;;;15.35;9.90;;;;;;;;;;5098340;28;20584;-80
2024/01/17 14:42:38;;;;;;;12.50;8.15;;;;;;;;;;5085543;28;20646;-79
2024/01/17 14:45:08;;;;;;;10.65;8.13;;;;;;;;;;5089276;28;20289;-78